Time;durP1;ratioP1;P1;durP2;ratioP2;P2;SDS_P1;SDS_P2;PMS_P1;PMS_P2;Temp;Humidity;BMP_temperature;BMP_pressure;BME280_temperature;BME280_humidity;BME280_pressure;Samples;Min_cycle;Max_cycle;Signal;HPM_P1;HPM_P2
2021/12/04 00:02:06;;;;;;;13.23;8.77;;;1.90;1.00;;;;;;5063587;28;20179;-79
2021/12/04 00:04:37;;;;;;;13.10;8.90;;;1.80;1.00;;;;;;5064099;28;20207;-80
2021/12/04 00:07:05;;;;;;;12.73;8.57;;;1.80;1.00;;;;;;5061861;28;20195;-79
2021/12/04 00:09:32;;;;;;;15.50;8.50;;;1.90;1.00;;;;;;5056192;28;20171;-78
2021/12/04 00:12:00;;;;;;;15.23;9.60;;;2.10;99.90;;;;;;5055587;28;20178;-77
2021/12/04 00:14:27;;;;;;;17.87;10.23;;;2.10;1.00;;;;;;5055227;28;20636;-76
2021/12/04 00:16:54;;;;;;;20.43;12.10;;;2.20;1.00;;;;;;5055532;28;20195;-77
2021/12/04 00:19:20;;;;;;;13.40;8.60;;;2.20;57.00;;;;;;5055204;28;20541;-80
2021/12/04 00:21:46;;;;;;;10.50;7.27;;;2.10;99.90;;;;;;5055317;28;20186;-78
2021/12/04 00:24:12;;;;;;;10.30;7.80;;;2.00;99.90;;;;;;5055312;28;20226;-76
2021/12/04 00:26:38;;;;;;;10.57;8.30;;;2.00;1.00;;;;;;5055204;28;20647;-78
2021/12/04 00:29:04;;;;;;;11.20;6.80;;;2.00;1.00;;;;;;5055535;28;20176;-76
2021/12/04 00:31:30;;;;;;;10.87;7.50;;;2.00;99.90;;;;;;5055575;28;20195;-80
2021/12/04 00:33:56;;;;;;;9.07;7.10;;;2.00;1.00;;;;;;5055641;28;20237;-80
2021/12/04 00:36:30;;;;;;;10.87;6.80;;;2.20;1.00;;;;;;5055248;28;20175;-78
2021/12/04 00:50:07;;;;;;;11.13;6.97;;;2.10;1.00;;;;;;5054549;28;20658;-79
2021/12/04 00:52:32;;;;;;;11.40;6.60;;;2.20;19.40;;;;;;5054827;28;20219;-79
2021/12/04 00:54:58;;;;;;;9.10;6.77;;;2.30;99.90;;;;;;5055075;28;20801;-78
2021/12/04 00:57:23;;;;;;;8.13;6.27;;;2.20;99.90;;;;;;5055228;28;20167;-78
2021/12/04 00:59:49;;;;;;;9.83;6.50;;;2.30;1.00;;;;;;5055073;28;20230;-79
2021/12/04 01:02:18;;;;;;;9.10;6.50;;;2.30;99.90;;;;;;5036878;28;20179;-78
2021/12/04 01:04:43;;;;;;;10.17;6.43;;;2.20;99.90;;;;;;5054602;28;20211;-83
2021/12/04 01:07:09;;;;;;;8.70;6.57;;;2.10;99.90;;;;;;5054403;28;20201;-78
2021/12/04 01:09:35;;;;;;;9.80;6.77;;;2.20;99.90;;;;;;5054125;28;20237;-78
2021/12/04 01:12:01;;;;;;;11.47;6.87;;;2.20;99.90;;;;;;5054746;28;20628;-78
2021/12/04 01:14:28;;;;;;;8.00;6.77;;;2.20;99.90;;;;;;5054411;28;20179;-79
2021/12/04 01:16:54;;;;;;;9.53;6.87;;;2.10;1.00;;;;;;5054278;28;20182;-78
2021/12/04 01:19:21;;;;;;;10.27;6.90;;;2.20;48.70;;;;;;5053764;28;20546;-77
2021/12/04 01:21:49;;;;;;;10.43;6.83;;;2.20;99.90;;;;;;5054127;28;20175;-78
2021/12/04 01:24:14;;;;;;;8.97;6.77;;;2.10;99.90;;;;;;5054586;28;20218;-78
2021/12/04 01:26:40;;;;;;;9.50;6.90;;;2.10;99.90;;;;;;5054417;28;20179;-78
2021/12/04 01:29:06;;;;;;;10.70;6.90;;;2.20;99.90;;;;;;5054230;28;20635;-81
2021/12/04 01:31:32;;;;;;;10.07;7.40;;;2.10;99.90;;;;;;5054015;28;20191;-80
2021/12/04 01:33:57;;;;;;;9.57;6.33;;;2.10;1.00;;;;;;5053678;28;20647;-78
2021/12/04 01:36:24;;;;;;;8.60;6.23;;;2.10;1.00;;;;;;5054007;28;20203;-78
2021/12/04 01:38:50;;;;;;;7.07;5.10;;;2.10;1.00;;;;;;5054393;28;20183;-77
2021/12/04 01:41:16;;;;;;;8.80;6.13;;;2.10;1.00;;;;;;5053498;28;20257;-78
2021/12/04 01:43:41;;;;;;;7.87;5.50;;;2.10;1.00;;;;;;5053804;28;20221;-78
2021/12/04 01:46:07;;;;;;;7.53;5.53;;;2.20;1.00;;;;;;5035691;28;20167;-79
2021/12/04 01:48:33;;;;;;;10.73;5.53;;;2.10;99.90;;;;;;5053353;28;20179;-78
2021/12/04 01:50:59;;;;;;;9.40;5.90;;;2.10;55.80;;;;;;5053047;28;20563;-78
2021/12/04 01:53:26;;;;;;;9.03;5.80;;;2.20;99.90;;;;;;5054169;28;20179;-80
2021/12/04 01:55:56;;;;;;;7.10;5.30;;;2.20;99.90;;;;;;5054103;28;20631;-78
2021/12/04 01:58:23;;;;;;;6.73;5.43;;;2.10;1.00;;;;;;5054327;28;20171;-77
2021/12/04 02:00:49;;;;;;;7.90;5.33;;;2.10;78.30;;;;;;5053140;28;20569;-80
2021/12/04 02:03:16;;;;;;;7.73;5.47;;;2.10;99.90;;;;;;5053463;28;20214;-80
2021/12/04 02:05:42;;;;;;;7.20;5.50;;;2.20;1.00;;;;;;5053971;28;20175;-78
2021/12/04 02:08:11;;;;;;;7.60;5.17;;;2.10;1.00;;;;;;5052843;28;20200;-78
2021/12/04 02:10:37;;;;;;;8.50;5.00;;;1.80;1.00;;;;;;5053000;28;20563;-81
2021/12/04 02:13:03;;;;;;;6.50;4.90;;;1.80;1.00;;;;;;5052933;28;20663;-80
2021/12/04 02:15:29;;;;;;;6.90;5.33;;;1.70;50.80;;;;;;5053008;28;20172;-79
2021/12/04 02:17:56;;;;;;;8.33;5.10;;;1.70;99.90;;;;;;5053366;28;20182;-80
2021/12/04 02:20:26;;;;;;;9.70;5.30;;;1.60;99.90;;;;;;5053298;28;20222;-79
2021/12/04 02:22:51;;;;;;;6.27;4.77;;;1.60;99.90;;;;;;5053161;28;20175;-78
2021/12/04 02:25:18;;;;;;;7.90;5.33;;;1.60;99.90;;;;;;5052916;28;20229;-80
2021/12/04 02:27:45;;;;;;;7.00;5.60;;;1.60;99.90;;;;;;5052966;28;20179;-77
2021/12/04 02:30:15;;;;;;;9.23;5.83;;;1.60;99.90;;;;;;5052595;28;20294;-78
2021/12/04 02:32:41;;;;;;;11.40;5.80;;;1.60;99.90;;;;;;5053227;28;20233;-78
2021/12/04 02:35:09;;;;;;;7.33;6.00;;;1.60;99.90;;;;;;5053618;28;20175;-78
2021/12/04 02:37:36;;;;;;;8.17;5.87;;;1.60;99.90;;;;;;5052953;28;20183;-79
2021/12/04 02:40:03;;;;;;;7.27;5.67;;;1.60;99.90;;;;;;5052201;28;20298;-78
2021/12/04 02:42:30;;;;;;;10.03;6.07;;;1.50;99.90;;;;;;5052588;28;20262;-77
2021/12/04 02:44:59;;;;;;;8.97;6.47;;;1.50;99.90;;;;;;5052530;28;20730;-77
2021/12/04 02:47:26;;;;;;;8.00;6.13;;;1.60;99.90;;;;;;5052909;28;20270;-76
2021/12/04 02:49:52;;;;;;;9.60;6.00;;;1.60;99.90;;;;;;5052402;28;20202;-79
2021/12/04 02:52:19;;;;;;;10.30;7.07;;;1.60;99.90;;;;;;5052551;28;20194;-78
2021/12/04 02:54:45;;;;;;;10.87;6.87;;;1.70;99.90;;;;;;5052997;28;20233;-78
2021/12/04 02:57:13;;;;;;;10.33;6.30;;;1.80;99.90;;;;;;5053125;28;20186;-77
2021/12/04 02:59:40;;;;;;;10.97;6.53;;;1.80;99.90;;;;;;5052705;28;20225;-77
2021/12/04 03:02:14;;;;;;;9.97;6.30;;;1.90;99.90;;;;;;5053596;28;20178;-76
2021/12/04 03:04:40;;;;;;;10.30;6.40;;;1.90;99.90;;;;;;5053270;28;20202;-76
2021/12/04 03:07:05;;;;;;;8.17;6.47;;;1.90;99.90;;;;;;5062425;28;20592;-76
2021/12/04 03:09:31;;;;;;;10.27;6.77;;;1.90;99.90;;;;;;5064382;28;20652;-77
2021/12/04 03:11:57;;;;;;;10.23;6.27;;;1.90;99.90;;;;;;5063100;28;20171;-75
2021/12/04 03:14:22;;;;;;;8.57;6.40;;;1.80;99.90;;;;;;5064077;28;20175;-78
2021/12/04 03:16:48;;;;;;;10.23;6.57;;;1.90;99.90;;;;;;5063784;28;20238;-75
2021/12/04 03:19:16;;;;;;;11.47;6.87;;;1.80;99.90;;;;;;5061926;28;20504;-76
2021/12/04 03:21:42;;;;;;;11.83;6.70;;;1.80;99.90;;;;;;5060824;28;20201;-77
2021/12/04 03:24:12;;;;;;;8.87;7.50;;;1.80;99.90;;;;;;5057178;28;20206;-78
2021/12/04 03:26:38;;;;;;;11.57;8.47;;;1.70;99.90;;;;;;5059035;28;20274;-78
2021/12/04 03:29:08;;;;;;;13.73;7.80;;;1.70;99.90;;;;;;5056148;28;20187;-78
2021/12/04 03:42:32;;;;;;;13.00;8.20;;;1.60;99.90;;;;;;5053132;28;20182;-78
2021/12/04 03:44:57;;;;;;;12.03;8.90;;;1.60;99.90;;;;;;5034339;28;20230;-78
2021/12/04 03:47:23;;;;;;;11.67;7.77;;;1.60;99.90;;;;;;5051994;28;20251;-78
2021/12/04 03:49:50;;;;;;;13.50;8.70;;;1.60;99.90;;;;;;5051777;28;20195;-78
2021/12/04 03:52:15;;;;;;;13.73;7.93;;;1.50;99.90;;;;;;5051993;28;20187;-77
2021/12/04 03:54:42;;;;;;;11.47;7.93;;;1.50;99.90;;;;;;5052636;28;20644;-80
2021/12/04 03:57:10;;;;;;;13.90;9.03;;;1.50;99.90;;;;;;5052421;28;20199;-78
2021/12/04 03:59:39;;;;;;;14.50;8.70;;;1.50;99.90;;;;;;5051513;28;20206;-77
2021/12/04 04:02:08;;;;;;;14.23;8.83;;;1.60;99.90;;;;;;5051618;28;20288;-77
2021/12/04 04:04:33;;;;;;;12.43;8.57;;;1.40;99.90;;;;;;5051702;28;20582;-77
2021/12/04 04:07:00;;;;;;;15.47;8.50;;;1.30;99.90;;;;;;5051638;28;20679;-77
2021/12/04 04:09:27;;;;;;;14.87;8.83;;;1.30;99.90;;;;;;5052226;28;20198;-78
2021/12/04 04:11:52;;;;;;;13.03;9.27;;;1.40;99.90;;;;;;5051364;28;20546;-78
2021/12/04 04:14:18;;;;;;;14.30;8.77;;;1.40;99.90;;;;;;5051458;28;20191;-78
2021/12/04 04:16:44;;;;;;;17.60;9.33;;;1.50;99.90;;;;;;5051005;28;20179;-77
2021/12/04 04:19:11;;;;;;;12.77;9.40;;;1.50;99.90;;;;;;5050803;28;20655;-81
2021/12/04 04:21:39;;;;;;;16.17;9.80;;;1.40;99.90;;;;;;5051763;28;20195;-76
2021/12/04 04:24:26;;;;;;;13.13;9.20;;;1.40;99.90;;;;;;5051407;28;20222;-78
2021/12/04 04:26:52;;;;;;;13.67;9.63;;;1.40;99.90;;;;;;5051115;28;20175;-77
2021/12/04 04:29:18;;;;;;;13.77;9.70;;;1.40;99.90;;;;;;5050535;28;20179;-77
2021/12/04 04:31:48;;;;;;;15.53;9.40;;;1.50;99.90;;;;;;5053842;28;20180;-76
2021/12/04 04:34:30;;;;;;;14.23;9.97;;;1.50;99.90;;;;;;5054918;28;20187;-78
2021/12/04 04:37:07;;;;;;;15.67;9.33;;;1.50;99.90;;;;;;5055460;28;20228;-76
2021/12/04 05:14:34;;;;;;;30.40;19.00;;;2.20;99.90;;;;;;5054416;28;20179;-78
2021/12/04 05:17:07;;;;;;;18.93;12.83;;;2.20;99.90;;;;;;5054241;28;20640;-78
2021/12/04 05:22:09;;;;;;;13.90;9.00;;;2.20;99.90;;;;;;5055921;28;20175;-79
2021/12/04 05:24:35;;;;;;;13.47;8.53;;;2.20;99.90;;;;;;5037719;28;20242;-80
2021/12/04 05:27:01;;;;;;;11.37;8.57;;;2.10;99.90;;;;;;5057190;28;20179;-80
2021/12/04 05:29:27;;;;;;;10.90;8.70;;;2.10;99.90;;;;;;5056399;28;20237;-78
2021/12/04 05:31:53;;;;;;;12.30;8.53;;;2.20;99.90;;;;;;5056695;28;20652;-79
2021/12/04 05:34:18;;;;;;;8.63;6.83;;;2.30;99.90;;;;;;5056522;28;20536;-79
2021/12/04 05:36:44;;;;;;;6.70;5.97;;;2.40;99.90;;;;;;5056940;28;20171;-79
2021/12/04 05:39:10;;;;;;;9.27;7.40;;;2.40;99.90;;;;;;5056065;28;20707;-85
2021/12/04 05:41:36;;;;;;;6.67;5.77;;;2.40;99.90;;;;;;5055030;28;20604;-80
2021/12/04 05:44:06;;;;;;;11.37;8.07;;;2.30;99.90;;;;;;5054750;28;20272;-80
2021/12/04 05:46:39;;;;;;;13.63;8.90;;;2.30;99.90;;;;;;5056488;28;20186;-80
2021/12/04 05:49:28;;;;;;;11.87;8.37;;;2.30;99.90;;;;;;5057695;28;20190;-78
2021/12/04 05:54:44;;;;;;;13.40;8.60;;;2.30;99.90;;;;;;5054879;28;20274;-79
2021/12/04 05:57:11;;;;;;;18.20;14.90;;;2.10;99.90;;;;;;5055153;28;20179;-78
2021/12/04 05:59:36;;;;;;;12.80;9.20;;;2.20;99.90;;;;;;5053149;28;20199;-79
2021/12/04 06:02:02;;;;;;;28.93;18.63;;;2.20;99.90;;;;;;5053909;28;20317;-77
2021/12/04 06:04:28;;;;;;;12.87;7.60;;;2.30;99.90;;;;;;5053974;28;20219;-78
2021/12/04 06:06:54;;;;;;;10.53;7.87;;;2.40;99.90;;;;;;5055747;28;20178;-79
2021/12/04 06:09:19;;;;;;;11.40;7.67;;;2.50;99.90;;;;;;5052912;28;20568;-78
2021/12/04 06:11:45;;;;;;;10.97;7.77;;;2.60;99.90;;;;;;5053583;28;20206;-78
2021/12/04 06:14:11;;;;;;;9.23;6.90;;;2.50;99.90;;;;;;5053388;28;20179;-78
2021/12/04 06:16:36;;;;;;;10.43;7.23;;;2.50;99.90;;;;;;5054374;28;20171;-81
2021/12/04 06:19:12;;;;;;;10.10;7.23;;;2.60;99.90;;;;;;5055866;28;20182;-78
2021/12/04 06:24:22;;;;;;;8.40;6.90;;;2.70;99.90;;;;;;5054897;28;20237;-76
2021/12/04 06:26:47;;;;;;;7.70;6.80;;;2.70;99.90;;;;;;5053828;28;20648;-78
2021/12/04 06:29:13;;;;;;;9.77;7.70;;;2.90;99.90;;;;;;5052799;28;20190;-79
2021/12/04 06:31:39;;;;;;;12.10;8.93;;;2.80;99.90;;;;;;5042994;28;20233;-78
2021/12/04 06:34:04;;;;;;;10.67;9.17;;;2.80;99.90;;;;;;5054147;28;20532;-77
2021/12/04 06:36:30;;;;;;;9.73;8.07;;;2.80;99.90;;;;;;5052698;28;20175;-77
2021/12/04 06:38:56;;;;;;;9.47;7.70;;;2.80;99.90;;;;;;5053524;28;20179;-75
2021/12/04 06:41:21;;;;;;;9.82;8.43;;;2.80;99.90;;;;;;5051424;28;20416;-76
2021/12/04 06:43:50;;;;;;;23.23;14.27;;;2.80;99.90;;;;;;5052830;28;20214;-77
2021/12/04 06:46:17;;;;;;;22.13;14.57;;;2.90;99.90;;;;;;5052508;28;20180;-75
2021/12/04 06:48:53;;;;;;;14.77;9.53;;;2.90;99.90;;;;;;5052095;28;20262;-74
2021/12/04 06:51:26;;;;;;;13.87;9.57;;;3.00;99.90;;;;;;5033533;28;20206;-75
2021/12/04 06:54:05;;;;;;;13.70;9.60;;;3.10;99.90;;;;;;5051644;28;20648;-74
2021/12/04 06:56:35;;;;;;;11.43;8.43;;;3.10;99.90;;;;;;5051804;28;20182;-73
2021/12/04 06:59:09;;;;;;;11.77;6.80;;;3.00;99.90;;;;;;5051643;28;20703;-79
2021/12/04 07:01:36;;;;;;;11.60;6.73;;;2.90;99.90;;;;;;5050835;28;20187;-77
2021/12/04 07:04:02;;;;;;;10.73;6.97;;;2.70;99.90;;;;;;5033397;28;20603;-78
2021/12/04 07:06:27;;;;;;;9.03;6.70;;;2.60;99.90;;;;;;5051556;28;20176;-77
2021/12/04 07:08:55;;;;;;;9.13;7.07;;;2.60;99.90;;;;;;5051631;28;20183;-76
2021/12/04 07:11:21;;;;;;;9.90;6.90;;;2.70;99.90;;;;;;5051434;28;20188;-79
2021/12/04 07:13:47;;;;;;;10.27;7.20;;;2.90;99.90;;;;;;5051453;28;20232;-79
2021/12/04 07:16:16;;;;;;;8.03;6.23;;;3.00;99.90;;;;;;5053467;28;20203;-80
2021/12/04 07:18:41;;;;;;;7.97;6.03;;;3.00;99.90;;;;;;5052847;28;20182;-79
2021/12/04 07:21:07;;;;;;;8.37;6.30;;;3.00;99.90;;;;;;5051967;28;20667;-76
2021/12/04 07:23:33;;;;;;;7.50;6.20;;;3.00;99.90;;;;;;5052152;28;20207;-76
2021/12/04 07:25:58;;;;;;;7.57;6.03;;;3.20;99.90;;;;;;5052442;28;20226;-78
2021/12/04 07:28:24;;;;;;;8.23;5.90;;;3.30;99.90;;;;;;5051623;28;20175;-80
2021/12/04 07:30:50;;;;;;;9.67;5.33;;;3.20;99.90;;;;;;5051912;28;20218;-77
2021/12/04 07:33:16;;;;;;;8.10;5.03;;;3.30;99.90;;;;;;5051898;28;20686;-78
2021/12/04 07:35:42;;;;;;;8.03;5.13;;;3.40;99.90;;;;;;5042108;28;20190;-77
2021/12/04 07:38:07;;;;;;;8.13;5.43;;;3.40;99.90;;;;;;5034112;28;20644;-78
2021/12/04 07:40:33;;;;;;;9.73;5.23;;;3.40;99.90;;;;;;5031229;28;20261;-78
2021/12/04 07:42:59;;;;;;;11.73;6.10;;;3.40;99.90;;;;;;5031204;28;20272;-78
2021/12/04 07:45:24;;;;;;;12.73;5.80;;;3.40;99.90;;;;;;5033247;28;20270;-77
2021/12/04 07:47:50;;;;;;;9.73;6.17;;;3.30;99.90;;;;;;5051423;28;20175;-79
2021/12/04 07:50:16;;;;;;;10.90;7.63;;;3.30;99.90;;;;;;5051425;28;20675;-78
2021/12/04 07:52:41;;;;;;;21.53;11.80;;;3.20;99.90;;;;;;5049036;28;20199;-79
2021/12/04 07:55:08;;;;;;;22.13;11.50;;;3.10;99.90;;;;;;5034847;28;20180;-77
2021/12/04 07:57:34;;;;;;;27.97;11.23;;;3.10;99.90;;;;;;5048982;28;20187;-77
2021/12/04 08:00:01;;;;;;;23.50;12.07;;;3.10;99.90;;;;;;5046677;28;20450;-82
2021/12/04 08:02:27;;;;;;;18.50;9.30;;;3.10;99.90;;;;;;5031404;28;20182;-78
2021/12/04 08:04:52;;;;;;;19.60;8.80;;;3.10;99.90;;;;;;5049211;28;20207;-77
2021/12/04 08:07:18;;;;;;;9.23;5.53;;;3.30;99.90;;;;;;5056623;28;20258;-80
2021/12/04 08:09:43;;;;;;;11.93;5.70;;;3.40;99.90;;;;;;5043281;28;20264;-79
2021/12/04 08:12:10;;;;;;;10.73;5.03;;;3.60;99.90;;;;;;5042704;28;20598;-78
2021/12/04 08:14:37;;;;;;;12.37;5.30;;;3.80;99.90;;;;;;5050705;28;20171;-79
2021/12/04 08:17:02;;;;;;;5.50;4.13;;;4.00;99.90;;;;;;5053341;28;20179;-77
2021/12/04 08:19:28;;;;;;;6.97;4.80;;;4.20;99.90;;;;;;5050557;28;20309;-80
2021/12/04 08:21:54;;;;;;;7.27;5.20;;;4.40;99.90;;;;;;5048141;28;20667;-78
2021/12/04 08:24:19;;;;;;;8.47;5.90;;;4.50;99.90;;;;;;5046945;28;20294;-78
2021/12/04 08:26:46;;;;;;;7.97;4.77;;;4.50;99.90;;;;;;5051155;28;20646;-79
2021/12/04 08:29:13;;;;;;;6.40;3.70;;;4.60;99.90;;;;;;5053331;28;20207;-79
2021/12/04 08:31:38;;;;;;;4.40;3.70;;;4.80;99.90;;;;;;5051620;28;20195;-78
2021/12/04 08:34:04;;;;;;;20.20;14.80;;;4.90;99.90;;;;;;5051661;28;20185;-79
2021/12/04 08:36:32;;;;;;;10.97;6.23;;;4.80;99.90;;;;;;5051318;28;20182;-78
2021/12/04 08:38:58;;;;;;;15.53;6.73;;;4.80;99.90;;;;;;5055182;28;20179;-80
2021/12/04 08:41:24;;;;;;;140.93;11.40;;;4.70;99.90;;;;;;5054993;28;20203;-80
2021/12/04 08:43:49;;;;;;;12.50;6.40;;;4.40;99.90;;;;;;5055012;28;20211;-78
2021/12/04 08:46:20;;;;;;;13.30;6.40;;;4.30;99.90;;;;;;5050665;28;20176;-80
2021/12/04 08:48:47;;;;;;;12.43;6.93;;;4.40;99.90;;;;;;5043767;28;20193;-78
2021/12/04 08:51:12;;;;;;;11.23;7.47;;;4.50;99.90;;;;;;5042930;28;20219;-80
2021/12/04 08:53:38;;;;;;;11.77;7.60;;;4.50;99.90;;;;;;5048784;28;20198;-78
2021/12/04 08:56:04;;;;;;;15.53;8.80;;;4.50;99.90;;;;;;5038749;28;20267;-77
2021/12/04 08:58:29;;;;;;;8.93;7.40;;;4.40;99.90;;;;;;5035315;28;20253;-80
2021/12/04 09:00:59;;;;;;;20.43;7.80;;;4.50;99.90;;;;;;5035867;28;20240;-77
2021/12/04 09:03:31;;;;;;;8.83;7.30;;;4.50;99.90;;;;;;5034621;28;20211;-77
2021/12/04 09:05:58;;;;;;;13.50;7.30;;;4.60;99.90;;;;;;5034813;28;20215;-78
2021/12/04 09:08:25;;;;;;;10.50;6.67;;;4.60;99.90;;;;;;5034936;28;20270;-79
2021/12/04 09:10:52;;;;;;;9.37;7.10;;;4.70;99.90;;;;;;5033988;28;20257;-79
2021/12/04 09:13:18;;;;;;;9.07;6.60;;;4.70;99.90;;;;;;5037852;28;20200;-79
2021/12/04 09:15:46;;;;;;;9.00;6.07;;;4.70;99.90;;;;;;5047247;28;20215;-78
2021/12/04 09:18:12;;;;;;;12.33;8.40;;;4.60;99.90;;;;;;5026965;28;20237;-79
2021/12/04 09:20:38;;;;;;;13.80;7.20;;;4.60;99.90;;;;;;5043515;28;20936;-78
2021/12/04 09:23:08;;;;;;;7.27;6.33;;;4.80;99.90;;;;;;5030148;28;20194;-79
2021/12/04 09:25:37;;;;;;;8.30;6.20;;;4.90;99.90;;;;;;5051137;28;20186;-77
2021/12/04 09:28:22;;;;;;;10.20;6.10;;;4.90;99.90;;;;;;5051378;28;20187;-79
2021/12/04 09:34:01;;;;;;;7.63;5.93;;;5.00;99.90;;;;;;5054464;28;20171;-77
2021/12/04 10:20:18;;;;;;;7.93;6.43;;;6.40;99.90;;;;;;5052770;28;20359;-78
2021/12/04 10:23:24;;;;;;;12.20;7.33;;;6.50;99.90;;;;;;5053266;28;20186;-80
2021/12/04 10:34:31;;;;;;;8.70;6.10;;;6.90;99.90;;;;;;5053845;28;20202;-78
2021/12/04 10:37:07;;;;;;;11.43;6.90;;;7.10;99.90;;;;;;5059027;28;20178;-78
2021/12/04 10:39:34;;;;;;;12.13;5.80;;;7.10;99.90;;;;;;5055203;28;20587;-77
2021/12/04 10:42:03;;;;;;;9.67;5.57;;;7.10;99.90;;;;;;5052467;28;20175;-77
2021/12/04 10:44:30;;;;;;;8.93;5.70;;;7.10;99.90;;;;;;5053173;28;20237;-77
2021/12/04 10:47:04;;;;;;;8.10;6.03;;;7.10;99.90;;;;;;5053324;28;20171;-79
2021/12/04 10:49:54;;;;;;;6.47;5.50;;;7.10;99.90;;;;;;5054408;28;20183;-78
2021/12/04 11:00:57;;;;;;;5.50;3.60;;;7.20;99.90;;;;;;5150270;23;20218;-77
2021/12/04 11:23:59;;;;;;;2.27;1.30;;;8.50;99.90;;;;;;5031367;28;20200;-76
2021/12/04 11:42:43;;;;;;;1.17;1.07;;;9.10;99.90;;;;;;5035811;28;20182;-76
2021/12/04 11:45:25;;;;;;;1.43;1.20;;;9.10;99.90;;;;;;5036065;28;20843;-77
2021/12/04 11:47:54;;;;;;;1.10;1.00;;;9.10;99.90;;;;;;5035957;28;20264;-76
2021/12/04 11:50:28;;;;;;;1.90;1.10;;;9.20;99.90;;;;;;5036049;28;20254;-77
2021/12/04 11:52:56;;;;;;;2.20;1.00;;;9.20;99.90;;;;;;5035181;28;20629;-77
2021/12/04 11:55:25;;;;;;;2.30;1.10;;;9.20;99.90;;;;;;5034097;28;20664;-77
2021/12/04 11:57:52;;;;;;;1.07;1.00;;;9.20;99.90;;;;;;5034116;28;20190;-76
2021/12/04 12:00:27;;;;;;;1.80;0.90;;;9.20;99.90;;;;;;5034343;28;20203;-76
2021/12/04 12:03:07;;;;;;;1.47;1.00;;;9.40;99.90;;;;;;5033336;28;20176;-76
2021/12/04 12:05:46;;;;;;;1.97;1.03;;;9.70;99.90;;;;;;5034006;28;20188;-76
2021/12/04 12:08:26;;;;;;;1.10;0.93;;;9.50;99.90;;;;;;5032928;28;20628;-77
2021/12/04 12:10:57;;;;;;;1.03;0.80;;;9.50;99.90;;;;;;5033773;28;20198;-78
2021/12/04 12:13:30;;;;;;;0.93;0.93;;;9.50;99.90;;;;;;5032853;28;20549;-76
2021/12/04 12:16:24;;;;;;;4.27;1.20;;;9.40;99.90;;;;;;5033911;28;20696;-76
2021/12/04 12:18:57;;;;;;;2.37;1.40;;;9.50;99.90;;;;;;5024375;28;20184;-75
2021/12/04 12:21:33;;;;;;;1.80;1.20;;;9.40;99.90;;;;;;5031792;28;20191;-75
2021/12/04 12:27:21;;;;;;;3.47;1.47;;;9.30;99.90;;;;;;5016261;28;20177;-76
2021/12/04 12:38:59;;;;;;;2.00;1.80;;;9.10;99.90;;;;;;4953656;29;20185;-76
2021/12/04 12:41:42;;;;;;;2.70;1.83;;;9.10;99.90;;;;;;4953272;28;20210;-75
2021/12/04 12:44:37;;;;;;;2.97;1.67;;;9.10;99.90;;;;;;4993012;28;20212;-76
2021/12/04 12:47:16;;;;;;;1.80;1.70;;;9.10;99.90;;;;;;4996964;28;20184;-75
2021/12/04 12:49:44;;;;;;;1.60;1.50;;;9.00;99.90;;;;;;5013907;28;20236;-75
2021/12/04 12:52:19;;;;;;;4.57;1.47;;;9.00;99.90;;;;;;5013765;28;20600;-75
2021/12/04 12:55:08;;;;;;;17.83;13.50;;;9.00;99.90;;;;;;5014222;28;20218;-76
2021/12/04 12:57:40;;;;;;;8.30;5.87;;;9.00;99.90;;;;;;5014027;28;20649;-76
2021/12/04 13:11:48;;;;;;;5.33;1.73;;;9.20;99.90;;;;;;5013895;28;20258;-76
2021/12/04 13:14:23;;;;;;;2.03;1.17;;;9.10;99.90;;;;;;5014128;28;20231;-76
2021/12/04 13:16:56;;;;;;;1.80;1.10;;;9.10;99.90;;;;;;5015582;28;20176;-77
2021/12/04 13:19:23;;;;;;;1.80;1.30;;;9.10;99.90;;;;;;5015282;28;20183;-78
2021/12/04 13:21:56;;;;;;;5.37;2.00;;;9.10;99.90;;;;;;5015385;28;20184;-76
2021/12/04 13:24:24;;;;;;;3.07;2.10;;;9.10;99.90;;;;;;5014941;28;20291;-76
2021/12/04 13:26:52;;;;;;;2.13;1.90;;;9.10;99.90;;;;;;5015397;28;20173;-77
2021/12/04 13:29:20;;;;;;;1.43;1.10;;;9.10;99.90;;;;;;5014632;28;20715;-79
2021/12/04 13:31:46;;;;;;;1.70;1.57;;;9.10;99.90;;;;;;5014996;28;20177;-76
2021/12/04 13:34:20;;;;;;;1.87;1.60;;;9.10;99.90;;;;;;5014876;28;20176;-76
2021/12/04 13:36:46;;;;;;;1.30;1.20;;;9.10;99.90;;;;;;5014834;28;20171;-76
2021/12/04 13:39:14;;;;;;;2.40;1.40;;;9.20;99.90;;;;;;5013696;28;20175;-76
2021/12/04 13:41:42;;;;;;;2.23;2.03;;;9.10;99.90;;;;;;5014382;28;20559;-76
2021/12/04 13:44:11;;;;;;;1.63;1.10;;;9.20;99.90;;;;;;5014175;28;20219;-77
2021/12/04 13:46:44;;;;;;;1.30;1.20;;;9.20;99.90;;;;;;5014530;28;20304;-77
2021/12/04 13:49:13;;;;;;;1.90;1.17;;;9.10;99.90;;;;;;5013814;28;20230;-76
2021/12/04 13:51:39;;;;;;;1.77;1.10;;;9.10;99.90;;;;;;5013992;28;20203;-76
2021/12/04 13:54:06;;;;;;;1.30;1.20;;;9.10;99.90;;;;;;5014889;28;20547;-78
2021/12/04 13:56:32;;;;;;;6.00;4.53;;;9.10;99.90;;;;;;5015664;28;20204;-77
2021/12/04 13:59:02;;;;;;;2.90;1.90;;;9.00;99.90;;;;;;5015009;28;20181;-76
2021/12/04 14:01:35;;;;;;;2.50;1.40;;;8.90;99.90;;;;;;5013663;28;20262;-76
2021/12/04 14:04:02;;;;;;;3.77;1.63;;;8.90;99.90;;;;;;5013068;28;20216;-76
2021/12/04 14:06:29;;;;;;;1.40;1.30;;;8.80;99.90;;;;;;5014504;28;20185;-76
2021/12/04 14:09:04;;;;;;;3.13;1.73;;;8.70;99.90;;;;;;5013862;28;20574;-77
2021/12/04 14:11:38;;;;;;;2.17;1.23;;;8.70;99.90;;;;;;5013572;28;20250;-76
2021/12/04 14:14:32;;;;;;;1.93;1.27;;;8.60;99.90;;;;;;5013472;28;20181;-76
2021/12/04 14:17:12;;;;;;;4.27;1.30;;;8.60;99.90;;;;;;5013625;28;20203;-77
2021/12/04 14:19:38;;;;;;;1.77;1.20;;;8.60;99.90;;;;;;5030816;28;20188;-76
2021/12/04 14:22:08;;;;;;;5.00;1.87;;;8.50;99.90;;;;;;5033061;28;20252;-76
2021/12/04 14:24:41;;;;;;;10.87;7.83;;;8.40;99.90;;;;;;5032532;28;20679;-77
2021/12/04 14:27:08;;;;;;;3.00;1.60;;;8.40;99.90;;;;;;5034403;28;20644;-76
2021/12/04 14:29:38;;;;;;;2.63;1.40;;;8.30;99.90;;;;;;5032901;28;20591;-76
2021/12/04 14:32:05;;;;;;;1.60;1.20;;;8.30;99.90;;;;;;5033277;28;20175;-77
2021/12/04 14:34:32;;;;;;;1.63;1.30;;;8.30;99.90;;;;;;5032018;28;20191;-76
2021/12/04 14:37:06;;;;;;;1.60;1.40;;;8.30;99.90;;;;;;5029641;28;20172;-76
2021/12/04 14:39:32;;;;;;;1.97;1.20;;;8.30;99.90;;;;;;5031279;28;20179;-78
2021/12/04 14:41:58;;;;;;;1.63;1.20;;;8.30;99.90;;;;;;5030057;28;20781;-76
2021/12/04 14:44:25;;;;;;;1.37;1.20;;;8.30;99.90;;;;;;5032599;28;20222;-76
2021/12/04 14:46:52;;;;;;;1.27;1.17;;;8.40;99.90;;;;;;5033188;28;20180;-75
2021/12/04 14:49:18;;;;;;;3.23;2.73;;;8.30;99.90;;;;;;5032143;28;20246;-74
2021/12/04 14:51:43;;;;;;;2.70;1.30;;;8.30;99.90;;;;;;5033886;28;20205;-75
2021/12/04 14:54:10;;;;;;;1.97;1.60;;;8.30;99.90;;;;;;5034957;28;20206;-77
2021/12/04 14:56:36;;;;;;;2.93;1.73;;;8.30;99.90;;;;;;5033535;28;20676;-77
2021/12/04 14:59:13;;;;;;;3.03;1.50;;;8.20;99.90;;;;;;5031799;28;20172;-75
2021/12/04 15:01:38;;;;;;;4.00;1.67;;;8.30;99.90;;;;;;5031552;28;20211;-75
2021/12/04 15:04:04;;;;;;;3.40;1.97;;;8.30;99.90;;;;;;5031228;28;20210;-74
2021/12/04 15:06:33;;;;;;;3.50;2.00;;;8.30;99.90;;;;;;5031203;28;20175;-74
2021/12/04 15:09:08;;;;;;;3.50;1.50;;;8.20;99.90;;;;;;5031573;28;20187;-75
2021/12/04 15:11:36;;;;;;;3.10;2.00;;;8.20;99.90;;;;;;5031224;28;20218;-74
2021/12/04 15:14:20;;;;;;;4.03;2.80;;;8.40;99.90;;;;;;5022697;28;20181;-75
2021/12/04 15:16:49;;;;;;;4.10;2.17;;;8.40;99.90;;;;;;5023489;28;20176;-75
2021/12/04 15:19:27;;;;;;;3.10;1.63;;;8.40;99.90;;;;;;5010719;28;20180;-76
2021/12/04 15:21:59;;;;;;;3.53;1.50;;;8.40;99.90;;;;;;5011821;28;20172;-75
2021/12/04 15:24:28;;;;;;;4.33;1.60;;;8.30;99.90;;;;;;5028862;28;20231;-75
2021/12/04 15:26:57;;;;;;;3.53;2.57;;;8.20;99.90;;;;;;5022987;28;20184;-74
2021/12/04 15:29:26;;;;;;;16.37;11.23;;;8.20;99.90;;;;;;5025633;28;20168;-75
2021/12/04 15:31:54;;;;;;;6.23;3.70;;;8.30;99.90;;;;;;5011190;28;20629;-74
2021/12/04 15:34:45;;;;;;;2.33;1.50;;;8.30;99.90;;;;;;5011481;28;20208;-76
2021/12/04 15:37:12;;;;;;;90.33;48.30;;;8.30;99.90;;;;;;5011566;28;20180;-75
2021/12/04 15:39:46;;;;;;;7.17;5.70;;;8.40;99.90;;;;;;5010730;28;20246;-76
2021/12/04 15:50:22;;;;;;;4.43;2.63;;;8.50;99.90;;;;;;5010130;28;20520;-75
2021/12/04 15:53:05;;;;;;;5.57;1.77;;;8.50;99.90;;;;;;5010347;28;20673;-76
2021/12/04 15:55:39;;;;;;;16.60;9.73;;;8.40;99.90;;;;;;5011318;28;20180;-76
2021/12/04 15:58:12;;;;;;;1.87;1.77;;;8.70;99.90;;;;;;5011332;28;20172;-76
2021/12/04 16:00:44;;;;;;;1.77;1.43;;;8.60;99.90;;;;;;5010640;28;20235;-77
2021/12/04 16:03:16;;;;;;;1.53;1.40;;;8.50;99.90;;;;;;5011292;28;20267;-76
2021/12/04 16:05:56;;;;;;;1.50;1.40;;;8.50;99.90;;;;;;5011060;28;20189;-75
2021/12/04 16:08:28;;;;;;;1.90;1.30;;;8.50;99.90;;;;;;5012181;28;20177;-76
2021/12/04 16:10:56;;;;;;;2.17;1.50;;;8.40;99.90;;;;;;5010791;28;20200;-74
2021/12/04 16:13:27;;;;;;;1.60;1.30;;;8.50;99.90;;;;;;5011017;28;20184;-75
2021/12/04 16:15:57;;;;;;;42.53;21.30;;;8.50;99.90;;;;;;5011055;28;20651;-75
2021/12/04 16:18:24;;;;;;;2.53;1.93;;;8.80;99.90;;;;;;5011213;28;20180;-76
2021/12/04 16:20:50;;;;;;;1.70;1.40;;;8.50;99.90;;;;;;5010510;28;20207;-75